Main page
METAR-TAF:

METAR-TAF

Airports :

Mont-De-Marsan, France

latitude: 43-55N, longitude: 000-30W, elevation: 62 m

Current weather observation

The report was made 20 minutes ago, at 04:00 UTC
Wind 4 kt from the Southwest, varying between South and West
Temperature 15°C
Humidity 94%
Pressure 1028 hPa
Visibility: 0800 m
fog

METAR: LFBM 260400Z AUTO 23004KT 190V280 0800 R27/0900U FG VV/// 15/14 Q1028 BECMG 9999 NSW BKN003

Time: 06:20 (04:20 UTC)

Forecast

The report was made 2 hours and 20 minutes ago, at 02:00 UTC
Forecast valid from 26 at 03 UTC to 27 at 03 UTC
Wind 2 kt from variable directions
Visibility 10 km or more
Broken clouds at a height of 300 ft
Becoming
from 26 at 07 UTC to 26 at 09 UTC
Visibility 10 km or more
no clouds below 1500 m and no cumulonimbus

TAF: LFBM 260200Z 2603/2703 VRB02KT 9999 BKN003 BECMG 2607/2609 CAVOK

Weather observations and forecasts of more than 4000 airports (METAR and TAF reports).

The available stations are represented by yellow and red dots on the map.

Hover mouse over dot to see the name of the station.

Then click to see weather observations and forecasts.

To change the map : click on the green buttons with a black cross to zoom in, on the green button with a dash to zoom out, or on the green arrows for adjacent maps.


METAR-TAF: